createdAt,value
2022-09-18T00:01:01.971Z,9.57
2022-09-18T00:03:28.896Z,9.58
2022-09-18T00:05:55.537Z,9.55
2022-09-18T00:08:22.343Z,9.53
2022-09-18T00:10:48.947Z,9.49
2022-09-18T00:13:15.876Z,9.47
2022-09-18T00:15:42.584Z,9.46
2022-09-18T00:18:09.667Z,9.49
2022-09-18T00:20:37.807Z,9.53
2022-09-18T00:23:04.807Z,9.56
2022-09-18T00:25:32.296Z,9.58
2022-09-18T00:27:59.283Z,9.55
2022-09-18T00:30:25.892Z,9.53
2022-09-18T00:32:52.520Z,9.55
2022-09-18T00:35:19.140Z,9.57
2022-09-18T00:37:45.779Z,9.60
2022-09-18T00:40:12.460Z,9.60
2022-09-18T00:42:39.106Z,9.62
2022-09-18T00:45:06.415Z,9.59
2022-09-18T00:47:38.573Z,9.54
2022-09-18T00:50:13.175Z,9.53
2022-09-18T00:52:48.977Z,9.51
2022-09-18T00:55:17.448Z,9.50
2022-09-18T00:57:50.881Z,9.49
2022-09-18T01:00:17.648Z,9.48
2022-09-18T01:02:47.571Z,9.45
2022-09-18T01:05:19.137Z,9.45
2022-09-18T01:08:18.223Z,9.45
2022-09-18T01:11:05.226Z,9.48
2022-09-18T01:13:52.662Z,9.48
2022-09-18T01:16:38.798Z,9.48
2022-09-18T01:19:17.897Z,9.48
2022-09-18T01:22:02.778Z,9.48
2022-09-18T01:24:45.221Z,9.49
2022-09-18T01:27:41.183Z,9.45
2022-09-18T01:30:11.157Z,9.44
2022-09-18T01:32:47.558Z,9.40
2022-09-18T01:35:40.993Z,9.42
2022-09-18T01:38:14.270Z,9.40
2022-09-18T01:40:46.863Z,9.38
2022-09-18T01:43:17.019Z,9.40
2022-09-18T01:45:47.561Z,9.37
2022-09-18T01:48:25.079Z,9.39
2022-09-18T01:50:56.390Z,9.39
2022-09-18T01:53:30.394Z,9.38
2022-09-18T01:56:01.709Z,9.33
2022-09-18T01:58:29.704Z,9.22
2022-09-18T02:01:00.504Z,9.13
2022-09-18T02:03:33.097Z,9.08
2022-09-18T02:06:06.750Z,9.02
2022-09-18T02:08:50.524Z,8.98
2022-09-18T02:11:19.086Z,9.01
2022-09-18T02:13:58.936Z,9.01
2022-09-18T02:16:48.743Z,9.01
2022-09-18T02:19:25.075Z,9.01
2022-09-18T02:21:54.415Z,8.99
2022-09-18T02:24:28.541Z,8.99
2022-09-18T02:26:56.964Z,8.98
2022-09-18T02:29:25.287Z,9.02
2022-09-18T02:31:52.502Z,9.05
2022-09-18T02:34:20.090Z,9.07
2022-09-18T02:37:11.626Z,9.08
2022-09-18T02:39:45.536Z,9.09
2022-09-18T02:42:30.721Z,9.09
2022-09-18T02:45:22.678Z,9.08
2022-09-18T02:48:09.445Z,9.05
2022-09-18T02:50:53.613Z,9.02
2022-09-18T02:53:31.490Z,9.00
2022-09-18T02:56:04.211Z,8.98
2022-09-18T02:58:40.475Z,8.92
2022-09-18T03:01:08.992Z,8.91
2022-09-18T03:03:38.795Z,8.90
2022-09-18T03:06:08.559Z,8.87
2022-09-18T03:08:35.331Z,8.80
2022-09-18T03:11:01.963Z,8.67
2022-09-18T03:13:28.591Z,8.58
2022-09-18T03:15:56.083Z,8.51
2022-09-18T03:18:23.117Z,8.47
2022-09-18T03:20:49.717Z,8.46
2022-09-18T03:23:16.338Z,8.50
2022-09-18T03:25:42.931Z,8.54
2022-09-18T03:28:09.598Z,8.56
2022-09-18T03:30:36.756Z,8.56
2022-09-18T03:33:03.571Z,8.56
2022-09-18T03:35:30.277Z,8.57
2022-09-18T03:37:56.886Z,8.57
2022-09-18T03:40:23.545Z,8.60
2022-09-18T03:42:50.878Z,8.59
2022-09-18T03:45:17.917Z,8.59
2022-09-18T03:47:44.832Z,8.56
2022-09-18T03:50:11.446Z,8.55
2022-09-18T03:52:38.051Z,8.54
2022-09-18T03:55:04.982Z,8.54
2022-09-18T03:57:31.565Z,8.56
2022-09-18T03:59:58.343Z,8.59
2022-09-18T04:02:24.959Z,8.61
2022-09-18T04:04:51.959Z,8.60
2022-09-18T04:07:18.526Z,8.58
2022-09-18T04:09:45.247Z,8.58
2022-09-18T04:12:11.974Z,8.59
2022-09-18T04:14:38.725Z,8.61
2022-09-18T04:17:05.362Z,8.61
2022-09-18T04:19:31.945Z,8.63
2022-09-18T04:21:58.579Z,8.62
2022-09-18T04:24:25.158Z,8.60
2022-09-18T04:26:51.757Z,8.56
2022-09-18T04:29:18.379Z,8.52
2022-09-18T04:31:44.986Z,8.53
2022-09-18T04:34:11.623Z,8.50
2022-09-18T04:36:38.268Z,8.49
2022-09-18T04:39:04.853Z,8.49
2022-09-18T04:41:31.455Z,8.49
2022-09-18T04:44:00.394Z,8.50
2022-09-18T04:46:27.025Z,8.47
2022-09-18T04:48:54.206Z,8.48
2022-09-18T04:51:20.821Z,8.47
2022-09-18T04:53:47.415Z,8.45
2022-09-18T04:56:14.003Z,8.42
2022-09-18T04:58:40.594Z,8.42
2022-09-18T05:01:07.358Z,8.41
2022-09-18T05:03:34.247Z,8.42
2022-09-18T05:06:00.825Z,8.43
2022-09-18T05:08:28.903Z,8.41
2022-09-18T05:10:55.950Z,8.45
2022-09-18T05:13:22.631Z,8.48
2022-09-18T05:15:49.255Z,8.50
2022-09-18T05:18:15.898Z,8.49
2022-09-18T05:20:42.478Z,8.49
2022-09-18T05:23:09.095Z,8.52
2022-09-18T05:25:35.751Z,8.52
2022-09-18T05:28:03.830Z,8.50
2022-09-18T05:30:31.563Z,8.52
2022-09-18T05:33:00.783Z,8.54
2022-09-18T05:35:29.674Z,8.56
2022-09-18T05:37:57.224Z,8.57
2022-09-18T05:40:26.316Z,8.59
2022-09-18T05:42:53.260Z,8.62
2022-09-18T05:45:20.949Z,8.62
2022-09-18T05:47:59.374Z,8.61
2022-09-18T05:50:28.393Z,8.63
2022-09-18T05:52:58.942Z,8.66
2022-09-18T05:55:25.816Z,8.70
2022-09-18T05:57:54.049Z,8.71
2022-09-18T06:00:20.658Z,8.75
2022-09-18T06:02:54.503Z,8.76
2022-09-18T06:05:21.386Z,8.74
2022-09-18T06:07:48.078Z,8.77
2022-09-18T06:10:15.075Z,8.81
2022-09-18T06:12:41.712Z,8.80
2022-09-18T06:15:09.142Z,8.82
2022-09-18T06:17:35.717Z,8.82
2022-09-18T06:20:03.417Z,8.85
2022-09-18T06:22:31.700Z,8.84
2022-09-18T06:24:58.461Z,8.84
2022-09-18T06:27:25.071Z,8.80
2022-09-18T06:29:52.162Z,8.78
2022-09-18T06:32:20.315Z,8.81
2022-09-18T06:34:47.848Z,8.81
2022-09-18T06:37:15.195Z,8.84
2022-09-18T06:39:42.076Z,8.88
2022-09-18T06:42:08.775Z,8.96
2022-09-18T06:44:35.354Z,9.04
2022-09-18T06:47:02.359Z,9.11
2022-09-18T06:49:28.956Z,9.19
2022-09-18T06:51:55.770Z,9.23
2022-09-18T06:54:22.344Z,9.29
2022-09-18T06:56:49.449Z,9.34
2022-09-18T06:59:16.036Z,9.38
2022-09-18T07:01:42.706Z,9.43
2022-09-18T07:04:09.350Z,9.50
2022-09-18T07:06:35.922Z,9.58
2022-09-18T07:09:02.785Z,9.63
2022-09-18T07:11:29.452Z,9.66
2022-09-18T07:13:56.054Z,9.70
2022-09-18T07:16:22.787Z,9.78
2022-09-18T07:18:49.475Z,9.84
2022-09-18T07:21:16.043Z,9.88
2022-09-18T07:23:42.957Z,9.89
2022-09-18T07:26:09.800Z,9.96
2022-09-18T07:28:37.118Z,10.02
2022-09-18T07:31:05.346Z,10.10
2022-09-18T07:33:32.767Z,10.18
2022-09-18T07:36:00.862Z,10.27
2022-09-18T07:38:27.553Z,10.35
2022-09-18T07:40:54.540Z,10.46
2022-09-18T07:43:21.168Z,10.59
2022-09-18T07:45:47.758Z,10.70
2022-09-18T07:48:14.584Z,10.73
2022-09-18T07:50:41.315Z,10.69
2022-09-18T07:53:09.046Z,10.72
2022-09-18T07:55:36.862Z,10.71
2022-09-18T07:58:06.539Z,10.73
2022-09-18T08:00:35.970Z,10.64
2022-09-18T08:03:07.964Z,10.66
2022-09-18T08:05:35.127Z,10.71
2022-09-18T08:08:05.964Z,10.71
2022-09-18T08:10:34.348Z,10.73
2022-09-18T08:13:02.704Z,10.74
2022-09-18T08:15:34.109Z,10.75
2022-09-18T08:18:01.239Z,10.78
2022-09-18T08:20:28.010Z,10.81
2022-09-18T08:22:54.667Z,10.87
2022-09-18T08:25:21.520Z,10.93
2022-09-18T08:27:48.137Z,11.00
2022-09-18T08:30:17.534Z,11.03
2022-09-18T08:32:44.184Z,11.11
2022-09-18T08:35:11.235Z,11.24
2022-09-18T08:37:38.108Z,11.38
2022-09-18T08:40:05.658Z,11.54
2022-09-18T08:42:54.022Z,11.71
2022-09-18T08:45:52.745Z,11.84
2022-09-18T08:48:25.414Z,11.97
2022-09-18T08:51:01.291Z,12.04
2022-09-18T08:53:42.401Z,12.05
2022-09-18T08:56:18.830Z,12.07
2022-09-18T08:59:01.006Z,12.11
2022-09-18T09:01:42.774Z,12.14
2022-09-18T09:04:25.176Z,12.39
2022-09-18T09:07:28.914Z,12.48
2022-09-18T09:10:24.186Z,12.80
2022-09-18T09:13:18.882Z,13.03
2022-09-18T09:16:01.891Z,13.00
2022-09-18T09:19:01.863Z,13.01
2022-09-18T09:21:44.470Z,13.11
2022-09-18T09:24:35.791Z,13.15
2022-09-18T09:27:16.791Z,13.12
2022-09-18T09:29:45.866Z,13.17
2022-09-18T09:32:25.813Z,13.20
2022-09-18T09:35:05.092Z,13.14
2022-09-18T09:37:45.323Z,13.12
2022-09-18T09:40:28.587Z,13.18
2022-09-18T09:43:04.912Z,13.30
2022-09-18T09:45:52.001Z,13.34
2022-09-18T09:48:34.008Z,13.44
2022-09-18T09:51:17.579Z,13.55
2022-09-18T09:53:44.972Z,13.67
2022-09-18T09:56:17.582Z,13.68
2022-09-18T09:58:47.031Z,13.67
2022-09-18T10:01:22.358Z,13.72
2022-09-18T10:04:01.273Z,13.88
2022-09-18T10:06:38.023Z,14.07
2022-09-18T10:09:16.710Z,14.19
2022-09-18T10:11:57.254Z,14.26
2022-09-18T10:14:27.986Z,14.40
2022-09-18T10:16:57.359Z,14.46
2022-09-18T10:19:29.599Z,14.39
2022-09-18T10:21:56.630Z,14.35
2022-09-18T10:24:33.962Z,14.32
2022-09-18T10:27:06.226Z,14.19
2022-09-18T10:29:35.902Z,14.10
2022-09-18T10:32:04.494Z,13.97
2022-09-18T10:34:36.968Z,13.86
2022-09-18T10:37:04.041Z,13.82
2022-09-18T10:39:33.659Z,13.83
2022-09-18T10:42:05.949Z,13.83
2022-09-18T10:44:37.708Z,13.80
2022-09-18T10:47:19.748Z,13.78
2022-09-18T10:49:59.275Z,13.81
2022-09-18T10:52:43.307Z,13.85
2022-09-18T10:55:18.205Z,13.91
2022-09-18T10:57:55.502Z,13.91
2022-09-18T11:00:22.168Z,13.90
2022-09-18T11:02:55.938Z,13.99
2022-09-18T11:05:46.779Z,14.11
2022-09-18T11:08:16.269Z,14.21
2022-09-18T11:10:48.693Z,14.33
2022-09-18T11:13:25.473Z,14.45
2022-09-18T11:15:56.240Z,14.66
2022-09-18T11:18:25.936Z,14.84
2022-09-18T11:20:55.596Z,15.04
2022-09-18T11:23:27.858Z,15.19
2022-09-18T11:26:16.218Z,15.22
2022-09-18T11:28:43.511Z,15.15
2022-09-18T11:31:19.522Z,15.19
2022-09-18T11:33:54.075Z,15.21
2022-09-18T11:36:27.449Z,15.28
2022-09-18T11:38:56.861Z,15.30
2022-09-18T11:41:26.392Z,15.29
2022-09-18T11:44:01.889Z,15.28
2022-09-18T11:47:02.285Z,15.31
2022-09-18T11:49:48.724Z,15.31
2022-09-18T11:52:33.089Z,15.23
2022-09-18T11:55:09.332Z,15.12
2022-09-18T11:57:39.315Z,15.06
2022-09-18T12:00:15.017Z,15.04
2022-09-18T12:02:56.971Z,15.05
2022-09-18T12:05:30.608Z,15.07
2022-09-18T12:08:32.327Z,15.08
2022-09-18T12:11:35.844Z,15.12
2022-09-18T12:14:08.130Z,15.13
2022-09-18T12:17:00.278Z,15.12
2022-09-18T12:19:49.384Z,15.09
2022-09-18T12:22:21.686Z,15.10
2022-09-18T12:24:49.446Z,15.16
2022-09-18T12:28:00.291Z,15.13
2022-09-18T12:30:40.954Z,14.93
2022-09-18T12:33:22.031Z,14.86
2022-09-18T12:36:03.922Z,14.80
2022-09-18T12:38:59.192Z,14.71
2022-09-18T12:41:53.299Z,14.72
2022-09-18T12:44:42.740Z,14.78
2022-09-18T12:47:24.198Z,14.82
2022-09-18T12:50:16.667Z,14.87
2022-09-18T12:53:08.189Z,14.87
2022-09-18T12:55:54.939Z,14.85
2022-09-18T12:58:56.414Z,14.84
2022-09-18T13:01:46.931Z,14.79
2022-09-18T13:04:27.368Z,14.75
2022-09-18T13:07:04.158Z,14.67
2022-09-18T13:09:41.410Z,14.62
2022-09-18T13:12:18.233Z,14.61
2022-09-18T13:14:52.998Z,14.66
2022-09-18T13:17:30.247Z,14.76
2022-09-18T13:20:01.463Z,14.83
2022-09-18T13:22:35.467Z,14.86
2022-09-18T13:25:05.119Z,14.88
2022-09-18T13:27:32.861Z,14.90
2022-09-18T13:30:12.921Z,14.93
2022-09-18T13:32:41.393Z,14.92
2022-09-18T13:35:13.940Z,14.86
2022-09-18T13:37:42.227Z,14.83
2022-09-18T13:40:44.509Z,14.82
2022-09-18T13:43:20.369Z,14.82
2022-09-18T13:45:47.385Z,14.74
2022-09-18T13:48:18.996Z,14.68
2022-09-18T13:50:56.196Z,14.69
2022-09-18T13:53:36.098Z,14.75
2022-09-18T13:56:04.392Z,14.80
2022-09-18T13:58:30.916Z,14.82
2022-09-18T14:00:58.840Z,14.82
2022-09-18T14:03:27.792Z,14.83
2022-09-18T14:05:55.122Z,14.80
2022-09-18T14:08:22.456Z,14.77
2022-09-18T14:11:05.351Z,14.68
2022-09-18T14:13:41.854Z,14.60
2022-09-18T14:16:27.056Z,14.57
2022-09-18T14:19:04.561Z,14.48
2022-09-18T14:21:39.067Z,14.36
2022-09-18T14:24:25.386Z,14.29
2022-09-18T14:27:30.390Z,14.26
2022-09-18T14:30:02.084Z,14.26
2022-09-18T14:32:29.405Z,14.27
2022-09-18T14:35:19.394Z,14.32
2022-09-18T14:37:46.534Z,14.35
2022-09-18T14:40:24.877Z,14.35
2022-09-18T14:42:51.791Z,14.35
2022-09-18T14:45:29.914Z,14.36
2022-09-18T14:47:58.017Z,14.42
2022-09-18T14:50:36.822Z,14.44
2022-09-18T14:53:25.983Z,14.36
2022-09-18T14:56:05.821Z,14.37
2022-09-18T14:58:36.693Z,14.41
2022-09-18T15:01:07.046Z,14.47
2022-09-18T15:03:38.765Z,14.52
2022-09-18T15:06:10.080Z,14.59
2022-09-18T15:08:37.835Z,14.64
2022-09-18T15:11:05.231Z,14.66
2022-09-18T15:13:37.769Z,14.69
2022-09-18T15:16:04.942Z,14.72
2022-09-18T15:18:42.497Z,14.73
2022-09-18T15:21:24.520Z,14.73
2022-09-18T15:23:51.697Z,14.72
2022-09-18T15:26:20.237Z,14.69
2022-09-18T15:28:50.404Z,14.65
2022-09-18T15:31:19.434Z,14.64
2022-09-18T15:33:54.885Z,14.61
2022-09-18T15:36:32.003Z,14.59
2022-09-18T15:39:00.209Z,14.58
2022-09-18T15:41:41.759Z,14.55
2022-09-18T15:44:30.315Z,14.52
2022-09-18T15:46:57.103Z,14.51
2022-09-18T15:49:29.238Z,14.50
2022-09-18T15:51:58.917Z,14.50
2022-09-18T15:54:27.346Z,14.50
2022-09-18T15:56:57.078Z,14.50
2022-09-18T15:59:32.594Z,14.47
2022-09-18T16:02:07.512Z,14.45
2022-09-18T16:04:35.933Z,14.45
2022-09-18T16:07:08.152Z,14.45
2022-09-18T16:09:49.269Z,14.43
2022-09-18T16:12:31.018Z,14.41
2022-09-18T16:15:11.170Z,14.36
2022-09-18T16:18:12.350Z,14.36
2022-09-18T16:20:41.062Z,14.34
2022-09-18T16:23:30.813Z,14.32
2022-09-18T16:26:18.250Z,14.29
2022-09-18T16:28:47.625Z,14.28
2022-09-18T16:31:17.403Z,14.26
2022-09-18T16:33:57.395Z,14.22
2022-09-18T16:36:34.336Z,14.20
2022-09-18T16:39:04.008Z,14.20
2022-09-18T16:41:31.721Z,14.19
2022-09-18T16:43:58.350Z,14.19
2022-09-18T16:46:30.256Z,14.20
2022-09-18T16:48:57.459Z,14.22
2022-09-18T16:51:24.099Z,14.21
2022-09-18T16:53:52.982Z,14.22
2022-09-18T16:56:27.178Z,14.21
2022-09-18T16:58:56.039Z,14.18
2022-09-18T17:01:23.286Z,14.16
2022-09-18T17:03:51.103Z,14.14
2022-09-18T17:06:19.083Z,14.11
2022-09-18T17:08:46.907Z,14.10
2022-09-18T17:11:14.024Z,14.10
2022-09-18T17:13:48.250Z,14.07
2022-09-18T17:16:30.347Z,14.00
2022-09-18T17:19:01.579Z,13.94
2022-09-18T17:21:28.986Z,13.85
2022-09-18T17:23:56.845Z,13.81
2022-09-18T17:26:23.771Z,13.74
2022-09-18T17:28:50.378Z,13.69
2022-09-18T17:31:18.687Z,13.67
2022-09-18T17:33:46.762Z,13.61
2022-09-18T17:36:16.314Z,13.58
2022-09-18T17:38:46.233Z,13.52
2022-09-18T17:41:14.930Z,13.49
2022-09-18T17:43:42.374Z,13.47
2022-09-18T17:46:11.631Z,13.41
2022-09-18T17:48:39.149Z,13.38
2022-09-18T17:51:12.038Z,13.36
2022-09-18T17:53:40.457Z,13.32
2022-09-18T17:56:10.474Z,13.31
2022-09-18T17:58:40.622Z,13.27
2022-09-18T18:01:12.612Z,13.23
2022-09-18T18:03:39.483Z,13.21
2022-09-18T18:06:06.323Z,13.13
2022-09-18T18:08:38.878Z,13.09
2022-09-18T18:11:14.966Z,13.12
2022-09-18T18:13:47.647Z,13.18
2022-09-18T18:16:25.895Z,13.19
2022-09-18T18:18:57.938Z,13.13
2022-09-18T18:21:25.778Z,13.13
2022-09-18T18:24:00.771Z,13.13
2022-09-18T18:26:31.189Z,13.13
2022-09-18T18:28:57.774Z,13.08
2022-09-18T18:31:25.711Z,13.05
2022-09-18T18:33:54.509Z,13.03
2022-09-18T18:36:24.352Z,13.04
2022-09-18T18:38:52.334Z,13.07
2022-09-18T18:41:22.226Z,13.08
2022-09-18T18:43:57.860Z,13.14
2022-09-18T18:46:27.234Z,13.15
2022-09-18T18:49:01.871Z,13.17
2022-09-18T18:51:37.228Z,13.19
2022-09-18T18:54:04.959Z,13.21
2022-09-18T18:56:34.407Z,13.22
2022-09-18T18:59:02.980Z,13.24
2022-09-18T19:01:31.124Z,13.26
2022-09-18T19:04:00.583Z,13.28
2022-09-18T19:06:28.271Z,13.26
2022-09-18T19:09:00.470Z,13.21
2022-09-18T19:11:30.077Z,13.14
2022-09-18T19:13:57.259Z,13.03
2022-09-18T19:16:25.849Z,12.91
2022-09-18T19:18:54.363Z,12.87
2022-09-18T19:21:22.391Z,12.88
2022-09-18T19:23:52.218Z,12.90
2022-09-18T19:26:24.125Z,12.87
2022-09-18T19:29:04.769Z,12.84
2022-09-18T19:31:34.144Z,12.75
2022-09-18T19:34:00.853Z,12.66
2022-09-18T19:36:29.315Z,12.60
2022-09-18T19:38:58.424Z,12.53
2022-09-18T19:41:49.851Z,12.48
2022-09-18T19:44:41.821Z,12.43
2022-09-18T19:47:23.109Z,12.38
2022-09-18T19:49:53.359Z,12.37
2022-09-18T19:52:23.126Z,12.40
2022-09-18T19:54:52.348Z,12.41
2022-09-18T19:57:21.634Z,12.42
2022-09-18T19:59:50.135Z,12.40
2022-09-18T20:02:20.036Z,12.43
2022-09-18T20:04:46.878Z,12.43
2022-09-18T20:07:14.449Z,12.40
2022-09-18T20:09:43.312Z,12.39
2022-09-18T20:12:10.300Z,12.38
2022-09-18T20:14:36.964Z,12.36
2022-09-18T20:17:03.926Z,12.32
2022-09-18T20:19:30.617Z,12.30
2022-09-18T20:21:57.224Z,12.29
2022-09-18T20:24:23.863Z,12.30
2022-09-18T20:26:51.541Z,12.35
2022-09-18T20:29:18.263Z,12.42
2022-09-18T20:31:46.020Z,12.48
2022-09-18T20:34:13.879Z,12.53
2022-09-18T20:36:40.462Z,12.59
2022-09-18T20:39:07.252Z,12.61
2022-09-18T20:41:33.897Z,12.59
2022-09-18T20:44:01.195Z,12.55
2022-09-18T20:46:27.892Z,12.49
2022-09-18T20:48:55.269Z,12.49
2022-09-18T20:51:40.058Z,12.50
2022-09-18T20:54:08.330Z,12.56
2022-09-18T20:56:43.325Z,12.54
2022-09-18T20:59:16.661Z,12.47
2022-09-18T21:01:45.359Z,12.39
2022-09-18T21:04:17.405Z,12.35
2022-09-18T21:06:46.848Z,12.33
2022-09-18T21:09:13.635Z,12.29
2022-09-18T21:11:43.440Z,12.31
2022-09-18T21:14:12.549Z,12.31
2022-09-18T21:16:43.569Z,12.32
2022-09-18T21:19:15.889Z,12.35
2022-09-18T21:21:42.901Z,12.35
2022-09-18T21:24:10.217Z,12.35
2022-09-18T21:26:39.542Z,12.35
2022-09-18T21:29:14.931Z,12.28
2022-09-18T21:31:42.928Z,12.19
2022-09-18T21:34:14.848Z,12.11
2022-09-18T21:36:44.497Z,12.07
2022-09-18T21:39:13.014Z,12.06
2022-09-18T21:41:40.096Z,12.01
2022-09-18T21:44:12.507Z,11.98
2022-09-18T21:46:39.634Z,11.97
2022-09-18T21:49:08.044Z,11.97
2022-09-18T21:51:40.158Z,11.98
2022-09-18T21:54:14.262Z,11.95
2022-09-18T21:56:45.709Z,11.91
2022-09-18T21:59:12.858Z,11.91
2022-09-18T22:01:41.745Z,11.89
2022-09-18T22:04:12.447Z,11.83
2022-09-18T22:06:42.785Z,11.76
2022-09-18T22:09:15.050Z,11.72
2022-09-18T22:11:45.191Z,11.70
2022-09-18T22:14:18.533Z,11.73
2022-09-18T22:16:48.327Z,11.73
2022-09-18T22:19:19.950Z,11.67
2022-09-18T22:21:51.642Z,11.61
2022-09-18T22:24:21.685Z,11.57
2022-09-18T22:27:00.316Z,11.55
2022-09-18T22:29:31.914Z,11.51
2022-09-18T22:32:02.220Z,11.48
2022-09-18T22:34:33.690Z,11.46
2022-09-18T22:37:01.297Z,11.43
2022-09-18T22:39:31.729Z,11.36
2022-09-18T22:41:58.717Z,11.31
2022-09-18T22:44:28.058Z,11.24
2022-09-18T22:46:54.940Z,11.22
2022-09-18T22:49:25.730Z,11.19
2022-09-18T22:51:52.490Z,11.18
2022-09-18T22:54:24.695Z,11.20
2022-09-18T22:56:54.421Z,11.23
2022-09-18T22:59:24.806Z,11.23
2022-09-18T23:01:53.831Z,11.19
2022-09-18T23:04:23.510Z,11.18
2022-09-18T23:06:52.516Z,11.17
2022-09-18T23:09:20.045Z,11.15
2022-09-18T23:11:48.634Z,11.14
2022-09-18T23:14:18.659Z,11.12
2022-09-18T23:16:46.023Z,11.07
2022-09-18T23:19:22.641Z,11.04
2022-09-18T23:21:50.174Z,11.03
2022-09-18T23:24:20.215Z,11.04
2022-09-18T23:26:51.396Z,11.00
2022-09-18T23:29:28.769Z,10.93
2022-09-18T23:32:01.749Z,10.90
2022-09-18T23:34:43.542Z,10.86
2022-09-18T23:37:10.174Z,10.84
2022-09-18T23:39:36.828Z,10.87
2022-09-18T23:42:05.807Z,10.89
2022-09-18T23:44:33.175Z,10.91
2022-09-18T23:47:00.949Z,10.89
2022-09-18T23:49:28.184Z,10.87
2022-09-18T23:51:57.640Z,10.87
2022-09-18T23:54:30.145Z,10.86
2022-09-18T23:56:57.226Z,10.87
2022-09-18T23:59:27.635Z,10.89
